createdAt,value
2022-07-25T00:00:59.007Z,17.63
2022-07-25T00:01:59.133Z,17.53
2022-07-25T00:02:58.983Z,17.48
2022-07-25T00:03:59.009Z,17.33
2022-07-25T00:04:59.017Z,17.08
2022-07-25T00:05:58.951Z,16.85
2022-07-25T00:06:58.946Z,16.60
2022-07-25T00:07:58.938Z,16.50
2022-07-25T00:08:58.934Z,16.49
2022-07-25T00:09:58.913Z,16.50
2022-07-25T00:10:58.901Z,16.52
2022-07-25T00:11:58.892Z,16.52
2022-07-25T00:12:58.879Z,16.35
2022-07-25T00:13:59.885Z,16.27
2022-07-25T00:14:58.872Z,16.22
2022-07-25T00:15:58.905Z,16.18
2022-07-25T00:16:58.841Z,16.25
2022-07-25T00:17:58.843Z,16.18
2022-07-25T00:18:58.875Z,16.07
2022-07-25T00:19:58.812Z,15.96
2022-07-25T00:20:58.805Z,15.96
2022-07-25T00:21:58.790Z,16.00
2022-07-25T00:22:58.786Z,15.94
2022-07-25T00:23:58.781Z,15.79
2022-07-25T00:24:58.764Z,15.93
2022-07-25T00:25:58.759Z,15.99
2022-07-25T00:26:58.769Z,15.97
2022-07-25T00:27:58.733Z,16.06
2022-07-25T00:28:58.734Z,16.14
2022-07-25T00:29:58.714Z,16.23
2022-07-25T00:30:58.767Z,16.12
2022-07-25T00:31:58.700Z,16.37
2022-07-25T00:32:58.690Z,16.35
2022-07-25T00:33:58.683Z,16.45
2022-07-25T00:34:58.667Z,16.37
2022-07-25T00:35:58.655Z,16.38
2022-07-25T00:36:58.644Z,16.48
2022-07-25T00:37:58.643Z,16.52
2022-07-25T00:38:58.637Z,16.56
2022-07-25T00:39:58.618Z,16.55
2022-07-25T00:40:58.613Z,16.60
2022-07-25T00:41:58.598Z,16.62
2022-07-25T00:42:58.591Z,16.58
2022-07-25T00:43:58.598Z,16.62
2022-07-25T00:44:58.578Z,16.71
2022-07-25T00:45:58.751Z,16.81
2022-07-25T00:46:58.681Z,16.83
2022-07-25T00:47:58.545Z,16.77
2022-07-25T00:48:58.604Z,16.63
2022-07-25T00:49:58.520Z,16.62
2022-07-25T00:50:58.510Z,16.63
2022-07-25T00:51:58.499Z,16.53
2022-07-25T00:52:58.495Z,16.52
2022-07-25T00:53:58.503Z,16.53
2022-07-25T00:54:58.473Z,16.38
2022-07-25T00:55:58.460Z,16.35
2022-07-25T00:56:58.447Z,16.20
2022-07-25T00:57:58.439Z,16.31
2022-07-25T00:58:58.443Z,16.27
2022-07-25T00:59:58.416Z,16.31
2022-07-25T01:00:58.410Z,16.30
2022-07-25T01:01:58.459Z,16.26
2022-07-25T01:02:58.649Z,16.40
2022-07-25T01:03:58.403Z,16.49
2022-07-25T01:04:58.378Z,16.38
2022-07-25T01:05:58.370Z,16.34
2022-07-25T01:06:58.348Z,16.33
2022-07-25T01:07:59.351Z,16.30
2022-07-25T01:08:58.347Z,16.33
2022-07-25T01:09:58.326Z,16.38
2022-07-25T01:10:58.322Z,16.23
2022-07-25T01:11:58.313Z,16.40
2022-07-25T01:12:58.298Z,16.38
2022-07-25T01:13:58.308Z,16.33
2022-07-25T01:14:58.284Z,16.34
2022-07-25T01:15:58.336Z,16.41
2022-07-25T01:16:58.266Z,16.37
2022-07-25T01:17:58.258Z,16.23
2022-07-25T01:18:58.259Z,16.25
2022-07-25T01:19:58.227Z,16.15
2022-07-25T01:20:58.230Z,16.03
2022-07-25T01:21:58.208Z,16.03
2022-07-25T01:22:58.194Z,15.89
2022-07-25T01:23:58.189Z,15.88
2022-07-25T01:24:58.191Z,15.85
2022-07-25T01:25:58.177Z,15.79
2022-07-25T01:26:58.161Z,15.82
2022-07-25T01:27:58.152Z,15.84
2022-07-25T01:28:58.145Z,15.86
2022-07-25T01:29:58.141Z,15.86
2022-07-25T01:30:58.145Z,15.93
2022-07-25T01:31:58.110Z,15.92
2022-07-25T01:32:58.101Z,15.93
2022-07-25T01:33:58.089Z,16.00
2022-07-25T01:34:58.092Z,16.03
2022-07-25T01:35:58.061Z,16.03
2022-07-25T01:36:58.074Z,16.01
2022-07-25T01:37:58.050Z,16.00
2022-07-25T01:38:58.037Z,16.00
2022-07-25T01:39:58.051Z,15.99
2022-07-25T01:40:58.019Z,15.94
2022-07-25T01:41:58.006Z,15.94
2022-07-25T01:42:57.997Z,15.94
2022-07-25T01:43:57.983Z,16.01
2022-07-25T01:44:57.992Z,16.00
2022-07-25T01:45:58.020Z,16.01
2022-07-25T01:46:57.942Z,15.94
2022-07-25T01:47:58.951Z,15.79
2022-07-25T01:48:57.984Z,15.63
2022-07-25T01:49:57.940Z,15.52
2022-07-25T01:50:57.916Z,15.52
2022-07-25T01:51:57.910Z,15.49
2022-07-25T01:52:57.909Z,15.46
2022-07-25T01:53:57.888Z,15.35
2022-07-25T01:54:57.902Z,15.51
2022-07-25T01:55:57.866Z,15.36
2022-07-25T01:56:57.856Z,15.33
2022-07-25T01:57:57.847Z,15.28
2022-07-25T01:58:57.837Z,15.27
2022-07-25T01:59:57.836Z,15.36
2022-07-25T02:00:57.854Z,15.41
2022-07-25T02:01:57.879Z,15.38
2022-07-25T02:02:57.798Z,15.42
2022-07-25T02:03:57.792Z,15.51
2022-07-25T02:04:57.903Z,15.38
2022-07-25T02:05:57.766Z,15.46
2022-07-25T02:06:58.759Z,15.48
2022-07-25T02:07:57.748Z,15.46
2022-07-25T02:08:57.741Z,15.51
2022-07-25T02:09:57.738Z,15.43
2022-07-25T02:10:57.718Z,15.30
2022-07-25T02:11:57.708Z,15.13
2022-07-25T02:12:57.697Z,14.99
2022-07-25T02:13:57.701Z,15.11
2022-07-25T02:14:57.692Z,15.05
2022-07-25T02:15:57.671Z,14.98
2022-07-25T02:16:57.717Z,15.02
2022-07-25T02:17:57.644Z,15.13
2022-07-25T02:18:57.637Z,15.19
2022-07-25T02:19:57.642Z,15.17
2022-07-25T02:20:57.622Z,15.17
2022-07-25T02:21:57.610Z,15.26
2022-07-25T02:22:57.596Z,15.19
2022-07-25T02:23:57.592Z,15.15
2022-07-25T02:24:57.592Z,15.11
2022-07-25T02:25:57.564Z,15.23
2022-07-25T02:26:57.554Z,15.24
2022-07-25T02:27:57.551Z,15.09
2022-07-25T02:28:57.534Z,15.19
2022-07-25T02:29:57.542Z,15.17
2022-07-25T02:30:57.583Z,15.20
2022-07-25T02:31:57.515Z,15.31
2022-07-25T02:32:57.498Z,15.35
2022-07-25T02:33:57.487Z,15.30
2022-07-25T02:34:57.490Z,15.27
2022-07-25T02:35:57.465Z,15.30
2022-07-25T02:36:57.457Z,15.26
2022-07-25T02:37:57.451Z,15.20
2022-07-25T02:38:57.434Z,15.05
2022-07-25T02:39:57.434Z,15.06
2022-07-25T02:40:57.415Z,14.99
2022-07-25T02:41:57.412Z,15.03
2022-07-25T02:42:57.397Z,14.99
2022-07-25T02:43:57.380Z,15.05
2022-07-25T02:44:58.396Z,15.09
2022-07-25T02:45:57.460Z,15.12
2022-07-25T02:46:57.359Z,15.01
2022-07-25T02:47:57.349Z,15.02
2022-07-25T02:48:57.397Z,14.95
2022-07-25T02:49:57.341Z,14.90
2022-07-25T02:50:57.321Z,14.80
2022-07-25T02:51:57.302Z,14.52
2022-07-25T02:52:57.291Z,14.43
2022-07-25T02:53:58.691Z,14.34
2022-07-25T02:54:58.287Z,14.38
2022-07-25T02:55:57.268Z,14.44
2022-07-25T02:56:57.257Z,14.46
2022-07-25T02:57:57.243Z,14.54
2022-07-25T02:58:57.242Z,14.56
2022-07-25T02:59:57.242Z,14.49
2022-07-25T03:00:57.253Z,14.49
2022-07-25T03:01:57.208Z,14.43
2022-07-25T03:02:57.194Z,14.50
2022-07-25T03:03:57.266Z,14.43
2022-07-25T03:04:57.182Z,14.52
2022-07-25T03:05:57.168Z,14.60
2022-07-25T03:06:57.158Z,14.62
2022-07-25T03:07:57.147Z,14.54
2022-07-25T03:08:57.132Z,14.54
2022-07-25T03:09:57.137Z,14.68
2022-07-25T03:10:57.113Z,14.61
2022-07-25T03:11:57.097Z,14.68
2022-07-25T03:12:57.090Z,14.57
2022-07-25T03:13:57.088Z,14.60
2022-07-25T03:14:57.083Z,14.61
2022-07-25T03:15:57.071Z,14.67
2022-07-25T03:16:57.094Z,14.60
2022-07-25T03:17:57.041Z,14.53
2022-07-25T03:18:57.032Z,14.46
2022-07-25T03:19:57.048Z,14.49
2022-07-25T03:20:57.015Z,14.47
2022-07-25T03:21:57.003Z,14.43
2022-07-25T03:22:56.991Z,14.31
2022-07-25T03:23:56.989Z,14.28
2022-07-25T03:24:56.970Z,14.25
2022-07-25T03:25:56.977Z,14.20
2022-07-25T03:26:56.952Z,14.20
2022-07-25T03:27:56.958Z,14.27
2022-07-25T03:28:56.933Z,14.29
2022-07-25T03:29:56.928Z,14.28
2022-07-25T03:30:56.927Z,14.20
2022-07-25T03:31:56.924Z,14.14
2022-07-25T03:32:56.895Z,14.37
2022-07-25T03:33:56.885Z,14.27
2022-07-25T03:34:56.871Z,14.39
2022-07-25T03:35:56.870Z,14.42
2022-07-25T03:36:56.854Z,14.47
2022-07-25T03:37:56.854Z,14.46
2022-07-25T03:38:56.833Z,14.57
2022-07-25T03:39:56.821Z,14.50
2022-07-25T03:40:56.824Z,14.47
2022-07-25T03:41:56.801Z,14.44
2022-07-25T03:42:56.803Z,14.42
2022-07-25T03:43:56.784Z,14.61
2022-07-25T03:44:56.776Z,14.65
2022-07-25T03:45:56.880Z,14.60
2022-07-25T03:46:56.752Z,14.68
2022-07-25T03:47:56.746Z,14.68
2022-07-25T03:48:56.787Z,14.71
2022-07-25T03:49:56.723Z,14.68
2022-07-25T03:50:56.729Z,14.67
2022-07-25T03:51:56.711Z,14.68
2022-07-25T03:52:56.700Z,14.83
2022-07-25T03:53:56.688Z,14.83
2022-07-25T03:54:56.681Z,14.84
2022-07-25T03:55:56.678Z,14.84
2022-07-25T03:56:56.656Z,14.84
2022-07-25T03:57:56.647Z,14.90
2022-07-25T03:58:56.631Z,14.86
2022-07-25T03:59:56.626Z,14.98
2022-07-25T04:00:56.685Z,14.80
2022-07-25T04:01:56.646Z,14.81
2022-07-25T04:02:56.611Z,14.68
2022-07-25T04:03:56.590Z,14.71
2022-07-25T04:04:56.573Z,14.72
2022-07-25T04:05:56.591Z,14.72
2022-07-25T04:06:56.553Z,14.69
2022-07-25T04:07:56.550Z,14.69
2022-07-25T04:08:56.536Z,14.75
2022-07-25T04:09:56.526Z,14.61
2022-07-25T04:10:56.529Z,14.62
2022-07-25T04:11:56.503Z,14.72
2022-07-25T04:12:56.503Z,14.83
2022-07-25T04:13:56.485Z,14.80
2022-07-25T04:14:56.475Z,14.74
2022-07-25T04:15:56.473Z,14.80
2022-07-25T04:16:56.482Z,14.91
2022-07-25T04:17:56.453Z,14.95
2022-07-25T04:18:56.874Z,14.98
2022-07-25T04:19:56.657Z,14.93
2022-07-25T04:20:56.435Z,14.93
2022-07-25T04:21:56.406Z,15.01
2022-07-25T04:22:56.460Z,15.01
2022-07-25T04:23:56.400Z,14.95
2022-07-25T04:24:56.407Z,14.95
2022-07-25T04:25:56.404Z,14.91
2022-07-25T04:26:56.360Z,14.93
2022-07-25T04:27:56.352Z,14.99
2022-07-25T04:28:56.342Z,15.03
2022-07-25T04:29:56.344Z,15.05
2022-07-25T04:30:56.328Z,14.98
2022-07-25T04:31:56.381Z,15.01
2022-07-25T04:32:56.306Z,15.11
2022-07-25T04:33:56.297Z,15.23
2022-07-25T04:34:56.289Z,15.24
2022-07-25T04:35:57.310Z,15.28
2022-07-25T04:36:56.266Z,15.41
2022-07-25T04:37:56.260Z,15.36
2022-07-25T04:38:56.246Z,15.45
2022-07-25T04:39:56.224Z,15.52
2022-07-25T04:40:56.235Z,15.57
2022-07-25T04:41:56.204Z,15.57
2022-07-25T04:42:56.198Z,15.51
2022-07-25T04:43:56.194Z,15.67
2022-07-25T04:44:56.173Z,15.78
2022-07-25T04:45:56.257Z,15.79
2022-07-25T04:46:56.164Z,15.85
2022-07-25T04:47:56.155Z,15.86
2022-07-25T04:48:56.238Z,15.93
2022-07-25T04:49:56.133Z,15.88
2022-07-25T04:50:56.144Z,16.01
2022-07-25T04:51:56.106Z,16.01
2022-07-25T04:52:56.109Z,16.11
2022-07-25T04:53:56.092Z,16.15
2022-07-25T04:54:56.081Z,16.23
2022-07-25T04:55:56.088Z,16.25
2022-07-25T04:56:56.065Z,16.31
2022-07-25T04:57:56.046Z,16.23
2022-07-25T04:58:56.037Z,16.27
2022-07-25T04:59:57.046Z,16.34
2022-07-25T05:00:56.074Z,16.25
2022-07-25T05:01:56.048Z,16.40
2022-07-25T05:02:56.006Z,16.25
2022-07-25T05:03:55.995Z,16.37
2022-07-25T05:04:55.983Z,16.38
2022-07-25T05:05:55.981Z,16.44
2022-07-25T05:06:55.968Z,16.52
2022-07-25T05:07:55.982Z,16.49
2022-07-25T05:08:55.941Z,16.48
2022-07-25T05:09:55.937Z,16.52
2022-07-25T05:10:55.928Z,16.53
2022-07-25T05:11:56.644Z,16.56
2022-07-25T05:12:56.907Z,16.59
2022-07-25T05:13:55.888Z,16.60
2022-07-25T05:14:55.873Z,16.52
2022-07-25T05:15:55.940Z,16.56
2022-07-25T05:16:55.925Z,16.60
2022-07-25T05:17:55.856Z,16.78
2022-07-25T05:18:55.841Z,16.81
2022-07-25T05:19:55.828Z,16.93
2022-07-25T05:20:55.853Z,17.03
2022-07-25T05:21:55.815Z,17.18
2022-07-25T05:22:57.575Z,17.30
2022-07-25T05:23:55.804Z,17.38
2022-07-25T05:24:55.805Z,17.46
2022-07-25T05:25:55.803Z,17.57
2022-07-25T05:26:55.765Z,17.76
2022-07-25T05:27:55.765Z,17.87
2022-07-25T05:28:55.762Z,17.88
2022-07-25T05:29:55.752Z,17.95
2022-07-25T05:30:55.915Z,18.15
2022-07-25T05:31:55.774Z,18.13
2022-07-25T05:32:56.715Z,18.21
2022-07-25T05:33:55.871Z,18.19
2022-07-25T05:34:55.702Z,18.22
2022-07-25T05:35:55.743Z,18.21
2022-07-25T05:36:55.720Z,18.22
2022-07-25T05:37:55.722Z,18.33
2022-07-25T05:38:55.682Z,18.37
2022-07-25T05:39:55.735Z,18.43
2022-07-25T05:40:55.687Z,18.57
2022-07-25T05:41:55.620Z,18.54
2022-07-25T05:43:00.800Z,18.44
2022-07-25T05:43:57.637Z,18.37
2022-07-25T05:44:55.591Z,18.42
2022-07-25T05:45:55.603Z,18.40
2022-07-25T05:46:55.621Z,18.37
2022-07-25T05:47:55.569Z,18.43
2022-07-25T05:48:55.571Z,18.46
2022-07-25T05:49:55.542Z,18.67
2022-07-25T05:50:55.532Z,18.77
2022-07-25T05:51:55.554Z,18.92
2022-07-25T05:52:55.541Z,19.10
2022-07-25T05:53:55.598Z,19.28
2022-07-25T05:54:55.518Z,19.40
2022-07-25T05:55:55.494Z,19.50
2022-07-25T05:56:55.470Z,19.53
2022-07-25T05:57:55.456Z,19.70
2022-07-25T05:58:55.440Z,19.91
2022-07-25T05:59:55.446Z,19.91
2022-07-25T06:00:55.439Z,19.94
2022-07-25T06:01:55.531Z,20.09
2022-07-25T06:02:55.535Z,20.24
2022-07-25T06:03:55.435Z,20.34
2022-07-25T06:04:55.458Z,20.41
2022-07-25T06:05:55.434Z,20.41
2022-07-25T06:06:55.399Z,20.59
2022-07-25T06:07:55.441Z,20.66
2022-07-25T06:08:55.423Z,20.74
2022-07-25T06:09:55.382Z,20.71
2022-07-25T06:10:56.417Z,20.69
2022-07-25T06:12:00.621Z,20.91
2022-07-25T06:12:57.337Z,20.89
2022-07-25T06:13:55.395Z,21.09
2022-07-25T06:14:55.311Z,21.14
2022-07-25T06:15:55.375Z,21.24
2022-07-25T06:16:55.353Z,21.11
2022-07-25T06:17:55.301Z,21.27
2022-07-25T06:18:55.316Z,21.35
2022-07-25T06:19:55.265Z,21.42
2022-07-25T06:20:55.305Z,21.50
2022-07-25T06:21:55.254Z,21.60
2022-07-25T06:22:55.245Z,21.66
2022-07-25T06:23:55.216Z,21.85
2022-07-25T06:24:55.205Z,21.98
2022-07-25T06:25:55.278Z,22.01
2022-07-25T06:26:55.184Z,22.09
2022-07-25T06:27:55.204Z,22.16
2022-07-25T06:28:55.185Z,22.31
2022-07-25T06:29:55.165Z,22.41
2022-07-25T06:30:55.221Z,22.56
2022-07-25T06:31:55.181Z,22.53
2022-07-25T06:32:55.138Z,22.49
2022-07-25T06:33:55.187Z,22.68
2022-07-25T06:34:55.139Z,22.68
2022-07-25T06:35:55.104Z,22.86
2022-07-25T06:36:55.093Z,22.84
2022-07-25T06:37:55.087Z,22.86
2022-07-25T06:38:55.167Z,22.80
2022-07-25T06:39:55.104Z,22.80
2022-07-25T06:40:55.128Z,22.80
2022-07-25T06:41:55.104Z,22.90
2022-07-25T06:42:55.073Z,22.90
2022-07-25T06:43:55.037Z,22.97
2022-07-25T06:44:55.031Z,23.09
2022-07-25T06:45:55.013Z,23.19
2022-07-25T06:46:55.058Z,23.14
2022-07-25T06:47:54.986Z,23.08
2022-07-25T06:48:55.027Z,23.14
2022-07-25T06:49:55.048Z,23.15
2022-07-25T06:50:54.992Z,23.38
2022-07-25T06:51:55.007Z,23.55
2022-07-25T06:52:54.979Z,23.61
2022-07-25T06:53:54.985Z,23.60
2022-07-25T06:54:54.948Z,23.83
2022-07-25T06:55:54.953Z,24.02
2022-07-25T06:56:54.988Z,24.13
2022-07-25T06:57:55.022Z,24.31
2022-07-25T06:58:54.921Z,24.26
2022-07-25T06:59:54.878Z,24.37
2022-07-25T07:00:55.923Z,24.41
2022-07-25T07:01:54.913Z,24.50
2022-07-25T07:02:54.927Z,24.54
2022-07-25T07:03:55.060Z,24.45
2022-07-25T07:04:54.849Z,24.56
2022-07-25T07:05:54.824Z,24.68
2022-07-25T07:06:54.863Z,24.75
2022-07-25T07:07:54.842Z,24.75
2022-07-25T07:08:54.847Z,24.67
2022-07-25T07:09:54.837Z,24.73
2022-07-25T07:10:54.858Z,24.87
2022-07-25T07:12:01.607Z,25.05
2022-07-25T07:12:58.566Z,25.20
2022-07-25T07:13:55.435Z,25.20
2022-07-25T07:14:54.904Z,25.32
2022-07-25T07:15:54.881Z,25.35
2022-07-25T07:16:54.849Z,25.52
2022-07-25T07:17:54.735Z,25.67
2022-07-25T07:18:54.732Z,25.64
2022-07-25T07:19:54.735Z,25.65
2022-07-25T07:20:54.704Z,25.71
2022-07-25T07:21:54.718Z,25.94
2022-07-25T07:22:54.711Z,26.08
2022-07-25T07:23:54.690Z,26.20
2022-07-25T07:24:54.683Z,26.25
2022-07-25T07:25:54.636Z,26.32
2022-07-25T07:26:54.679Z,26.39
2022-07-25T07:27:54.659Z,26.52
2022-07-25T07:28:54.640Z,26.61
2022-07-25T07:29:54.607Z,26.68
2022-07-25T07:31:56.671Z,26.87
2022-07-25T07:32:54.628Z,26.87
2022-07-25T07:33:55.589Z,27.09
2022-07-25T07:34:54.592Z,27.24
2022-07-25T07:35:54.551Z,27.48
2022-07-25T07:36:54.621Z,27.54
2022-07-25T07:37:54.577Z,27.51
2022-07-25T07:38:54.604Z,27.79
2022-07-25T07:39:54.509Z,27.88
2022-07-25T07:40:54.505Z,27.95
2022-07-25T07:41:55.562Z,28.09
2022-07-25T07:42:55.533Z,28.23
2022-07-25T07:43:54.527Z,28.41
2022-07-25T07:44:54.496Z,28.46
2022-07-25T07:45:54.484Z,28.70
2022-07-25T07:46:54.584Z,28.66
2022-07-25T07:47:54.492Z,28.80
2022-07-25T07:48:54.543Z,28.96
2022-07-25T07:49:54.435Z,29.07
2022-07-25T07:50:54.581Z,29.23
2022-07-25T07:51:54.453Z,29.43
2022-07-25T07:52:54.445Z,29.57
2022-07-25T07:53:55.236Z,29.59
2022-07-25T07:54:59.208Z,29.77
2022-07-25T07:55:56.353Z,29.89
2022-07-25T07:56:54.377Z,30.00
2022-07-25T07:57:54.387Z,30.09
2022-07-25T07:58:54.385Z,30.16
2022-07-25T07:59:54.346Z,30.34
2022-07-25T08:00:54.306Z,30.59
2022-07-25T08:01:54.368Z,30.69
2022-07-25T08:02:54.371Z,30.75
2022-07-25T08:03:54.321Z,30.84
2022-07-25T08:04:54.344Z,30.94
2022-07-25T08:05:54.282Z,31.11
2022-07-25T08:06:54.302Z,31.09
2022-07-25T08:07:54.258Z,31.13
2022-07-25T08:08:54.276Z,31.17
2022-07-25T08:09:54.300Z,31.26
2022-07-25T08:10:58.610Z,31.40
2022-07-25T08:11:55.236Z,31.54
2022-07-25T08:12:54.258Z,31.62
2022-07-25T08:13:54.231Z,31.68
2022-07-25T08:14:54.212Z,31.84
2022-07-25T08:15:54.281Z,31.92
2022-07-25T08:16:54.186Z,32.21
2022-07-25T08:17:54.153Z,32.25
2022-07-25T08:18:54.154Z,32.24
2022-07-25T08:19:54.174Z,32.20
2022-07-25T08:20:54.130Z,32.30
2022-07-25T08:21:54.165Z,32.49
2022-07-25T08:22:56.688Z,32.47
2022-07-25T08:23:55.106Z,32.49
2022-07-25T08:24:54.098Z,32.58
2022-07-25T08:25:54.097Z,32.79
2022-07-25T08:26:54.096Z,32.67
2022-07-25T08:27:54.102Z,32.96
2022-07-25T08:29:17.110Z,32.96
2022-07-25T08:29:56.135Z,33.22
2022-07-25T08:30:55.068Z,33.20
2022-07-25T08:31:54.094Z,33.31
2022-07-25T08:32:54.075Z,33.57
2022-07-25T08:33:54.020Z,33.64
2022-07-25T08:34:54.014Z,33.80
2022-07-25T08:35:54.055Z,33.94
2022-07-25T08:36:54.102Z,33.80
2022-07-25T08:37:54.019Z,33.64
2022-07-25T08:38:54.025Z,33.64
2022-07-25T08:39:54.024Z,33.82
2022-07-25T08:40:54.027Z,33.90
2022-07-25T08:41:54.028Z,34.09
2022-07-25T08:42:53.924Z,34.35
2022-07-25T08:43:54.006Z,34.54
2022-07-25T08:44:53.940Z,34.51
2022-07-25T08:45:54.019Z,34.22
2022-07-25T08:46:54.036Z,34.27
2022-07-25T08:47:53.910Z,34.32
2022-07-25T08:48:54.006Z,34.41
2022-07-25T08:49:53.978Z,34.20
2022-07-25T08:50:54.713Z,34.27
2022-07-25T08:51:54.611Z,34.26
2022-07-25T08:53:09.943Z,34.02
2022-07-25T08:53:55.838Z,33.67
2022-07-25T08:54:53.817Z,33.17
2022-07-25T08:55:53.851Z,33.04
2022-07-25T08:56:53.850Z,33.23
2022-07-25T08:57:53.834Z,33.22
2022-07-25T08:58:53.781Z,33.29
2022-07-25T08:59:53.780Z,33.13
2022-07-25T09:00:53.885Z,33.39
2022-07-25T09:01:53.879Z,33.20
2022-07-25T09:02:53.853Z,33.27
2022-07-25T09:03:53.826Z,33.55
2022-07-25T09:04:53.737Z,33.97
2022-07-25T09:05:53.735Z,33.85
2022-07-25T09:06:53.695Z,33.94
2022-07-25T09:07:53.740Z,34.24
2022-07-25T09:08:53.690Z,34.48
2022-07-25T09:09:53.670Z,34.80
2022-07-25T09:10:53.660Z,34.76
2022-07-25T09:11:53.674Z,35.08
2022-07-25T09:12:53.727Z,35.08
2022-07-25T09:13:53.682Z,35.18
2022-07-25T09:14:54.418Z,35.29
2022-07-25T09:15:53.764Z,34.92
2022-07-25T09:16:53.619Z,34.89
2022-07-25T09:17:53.641Z,35.08
2022-07-25T09:18:53.612Z,35.36
2022-07-25T09:19:53.592Z,35.60
2022-07-25T09:20:53.587Z,35.63
2022-07-25T09:21:53.590Z,35.67
2022-07-25T09:22:53.632Z,35.85
2022-07-25T09:23:53.613Z,35.92
2022-07-25T09:24:53.585Z,36.03
2022-07-25T09:25:53.583Z,36.03
2022-07-25T09:26:53.560Z,36.35
2022-07-25T09:27:53.654Z,36.36
2022-07-25T09:28:53.580Z,36.57
2022-07-25T09:29:53.561Z,36.83
2022-07-25T09:30:53.559Z,36.72
2022-07-25T09:31:53.506Z,36.72
2022-07-25T09:32:53.522Z,36.82
2022-07-25T09:33:53.521Z,36.49
2022-07-25T09:34:53.475Z,36.36
2022-07-25T09:35:53.520Z,36.38
2022-07-25T09:36:53.452Z,36.33
2022-07-25T09:37:53.456Z,36.17
2022-07-25T09:38:53.454Z,36.33
2022-07-25T09:39:53.416Z,36.45
2022-07-25T09:40:53.466Z,36.65
2022-07-25T09:41:53.467Z,36.75
2022-07-25T09:42:53.476Z,36.30
2022-07-25T09:43:53.407Z,36.15
2022-07-25T09:44:54.383Z,36.46
2022-07-25T09:45:53.416Z,36.76
2022-07-25T09:46:53.361Z,36.90
2022-07-25T09:47:53.415Z,36.54
2022-07-25T09:48:53.412Z,36.39
2022-07-25T09:49:53.378Z,36.73
2022-07-25T09:50:53.323Z,36.77
2022-07-25T09:51:53.332Z,37.01
2022-07-25T09:52:53.365Z,37.01
2022-07-25T09:53:53.314Z,37.23
2022-07-25T09:54:53.301Z,37.32
2022-07-25T09:55:53.286Z,37.58
2022-07-25T09:56:53.288Z,37.70
2022-07-25T09:57:53.294Z,37.95
2022-07-25T09:58:53.236Z,37.98
2022-07-25T09:59:53.296Z,37.98
2022-07-25T10:00:53.263Z,38.14
2022-07-25T10:01:53.246Z,38.11
2022-07-25T10:02:53.342Z,38.17
2022-07-25T10:03:53.232Z,37.90
2022-07-25T10:04:53.215Z,37.36
2022-07-25T10:05:53.216Z,37.16
2022-07-25T10:06:53.201Z,36.83
2022-07-25T10:07:53.157Z,36.67
2022-07-25T10:08:53.146Z,36.35
2022-07-25T10:09:53.139Z,36.60
2022-07-25T10:10:53.122Z,36.79
2022-07-25T10:11:53.123Z,36.67
2022-07-25T10:12:53.155Z,36.83
2022-07-25T10:13:53.124Z,37.16
2022-07-25T10:14:53.174Z,37.26
2022-07-25T10:15:53.151Z,37.55
2022-07-25T10:16:53.200Z,37.89
2022-07-25T10:17:53.128Z,38.10
2022-07-25T10:18:53.075Z,38.22
2022-07-25T10:19:58.309Z,38.57
2022-07-25T10:20:55.071Z,37.89
2022-07-25T10:21:53.021Z,38.04
2022-07-25T10:22:57.358Z,38.12
2022-07-25T10:23:54.022Z,38.27
2022-07-25T10:24:52.987Z,38.51
2022-07-25T10:25:53.025Z,38.51
2022-07-25T10:26:53.000Z,38.15
2022-07-25T10:27:52.973Z,37.96
2022-07-25T10:28:53.000Z,37.88
2022-07-25T10:29:52.971Z,37.98
2022-07-25T10:30:53.105Z,37.98
2022-07-25T10:31:52.934Z,37.67
2022-07-25T10:32:52.971Z,37.50
2022-07-25T10:33:53.192Z,37.28
2022-07-25T10:34:52.978Z,37.21
2022-07-25T10:35:52.916Z,37.10
2022-07-25T10:36:52.892Z,37.07
2022-07-25T10:37:52.948Z,36.94
2022-07-25T10:38:52.956Z,36.85
2022-07-25T10:39:52.883Z,36.54
2022-07-25T10:40:52.860Z,36.12
2022-07-25T10:41:52.817Z,35.91
2022-07-25T10:42:52.871Z,35.84
2022-07-25T10:43:52.847Z,35.76
2022-07-25T10:44:52.827Z,35.84
2022-07-25T10:45:52.864Z,35.88
2022-07-25T10:46:52.829Z,35.74
2022-07-25T10:47:52.761Z,35.76
2022-07-25T10:48:52.953Z,35.82
2022-07-25T10:50:15.171Z,35.97
2022-07-25T10:50:56.283Z,35.99
2022-07-25T10:51:53.805Z,36.14
2022-07-25T10:52:52.787Z,35.82
2022-07-25T10:53:52.729Z,35.72
2022-07-25T10:54:52.733Z,35.70
2022-07-25T10:56:05.355Z,35.63
2022-07-25T10:56:54.698Z,35.69
2022-07-25T10:58:16.228Z,35.84
2022-07-25T10:58:54.701Z,35.88
2022-07-25T10:59:53.703Z,36.12
2022-07-25T11:00:52.751Z,35.91
2022-07-25T11:01:52.747Z,35.92
2022-07-25T11:02:52.777Z,35.85
2022-07-25T11:03:52.605Z,35.52
2022-07-25T11:04:52.649Z,35.57
2022-07-25T11:05:52.643Z,35.97
2022-07-25T11:06:52.602Z,36.26
2022-07-25T11:08:18.853Z,36.46
2022-07-25T11:08:54.605Z,36.42
2022-07-25T11:09:52.551Z,36.49
2022-07-25T11:10:53.801Z,36.15
2022-07-25T11:11:52.606Z,35.84
2022-07-25T11:12:52.579Z,35.91
2022-07-25T11:13:53.568Z,36.12
2022-07-25T11:14:52.493Z,36.35
2022-07-25T11:15:52.542Z,36.70
2022-07-25T11:16:52.603Z,36.73
2022-07-25T11:17:52.490Z,37.14
2022-07-25T11:18:52.466Z,37.39
2022-07-25T11:19:52.496Z,37.93
2022-07-25T11:20:52.534Z,38.18
2022-07-25T11:21:52.417Z,38.22
2022-07-25T11:22:52.539Z,38.39
2022-07-25T11:23:52.485Z,37.93
2022-07-25T11:24:52.384Z,37.43
2022-07-25T11:25:52.442Z,37.21
2022-07-25T11:26:52.389Z,36.82
2022-07-25T11:27:52.396Z,36.99
2022-07-25T11:28:52.380Z,37.14
2022-07-25T11:29:52.357Z,37.38
2022-07-25T11:30:52.359Z,37.62
2022-07-25T11:31:53.439Z,37.86
2022-07-25T11:32:52.334Z,37.95
2022-07-25T11:33:52.360Z,38.18
2022-07-25T11:34:52.392Z,38.44
2022-07-25T11:35:52.330Z,38.79
2022-07-25T11:36:52.285Z,38.98
2022-07-25T11:37:52.266Z,39.44
2022-07-25T11:38:52.302Z,39.62
2022-07-25T11:39:53.747Z,39.62
2022-07-25T11:40:52.239Z,39.92
2022-07-25T11:41:52.384Z,40.08
2022-07-25T11:42:52.262Z,40.27
2022-07-25T11:43:52.319Z,40.27
2022-07-25T11:44:52.194Z,40.34
2022-07-25T11:45:52.288Z,40.65
2022-07-25T11:46:52.213Z,40.61
2022-07-25T11:47:52.210Z,40.33
2022-07-25T11:48:52.253Z,39.95
2022-07-25T11:49:52.218Z,40.19
2022-07-25T11:50:52.199Z,40.21
2022-07-25T11:51:52.181Z,40.33
2022-07-25T11:52:52.126Z,40.34
2022-07-25T11:53:52.227Z,40.57
2022-07-25T11:54:52.183Z,40.64
2022-07-25T11:55:52.159Z,40.29
2022-07-25T11:56:52.121Z,40.33
2022-07-25T11:57:52.179Z,40.29
2022-07-25T11:58:52.118Z,40.30
2022-07-25T11:59:52.196Z,40.34
2022-07-25T12:00:52.088Z,40.56
2022-07-25T12:01:52.135Z,40.57
2022-07-25T12:02:52.174Z,40.62
2022-07-25T12:03:52.151Z,40.88
2022-07-25T12:04:52.043Z,40.79
2022-07-25T12:05:52.113Z,40.26
2022-07-25T12:06:52.041Z,40.17
2022-07-25T12:07:52.049Z,39.89
2022-07-25T12:08:52.015Z,39.69
2022-07-25T12:09:52.029Z,39.74
2022-07-25T12:10:51.999Z,40.05
2022-07-25T12:11:51.983Z,40.14
2022-07-25T12:12:52.004Z,40.34
2022-07-25T12:13:51.972Z,40.36
2022-07-25T12:14:52.027Z,40.14
2022-07-25T12:15:52.024Z,40.18
2022-07-25T12:16:52.058Z,40.36
2022-07-25T12:17:52.014Z,40.36
2022-07-25T12:18:52.064Z,40.27
2022-07-25T12:19:51.950Z,39.62
2022-07-25T12:20:51.907Z,39.37
2022-07-25T12:21:51.918Z,39.61
2022-07-25T12:22:51.956Z,39.73
2022-07-25T12:23:51.994Z,39.78
2022-07-25T12:24:51.956Z,39.90
2022-07-25T12:25:51.918Z,39.71
2022-07-25T12:26:52.925Z,39.71
2022-07-25T12:27:51.864Z,39.30
2022-07-25T12:28:51.941Z,39.24
2022-07-25T12:29:51.848Z,39.20
2022-07-25T12:30:56.558Z,39.30
2022-07-25T12:31:52.842Z,39.43
2022-07-25T12:32:51.886Z,39.44
2022-07-25T12:33:51.891Z,39.55
2022-07-25T12:34:51.810Z,39.61
2022-07-25T12:35:51.803Z,39.70
2022-07-25T12:36:51.842Z,39.43
2022-07-25T12:37:51.901Z,39.22
2022-07-25T12:38:51.862Z,39.36
2022-07-25T12:39:51.802Z,39.55
2022-07-25T12:40:51.799Z,39.78
2022-07-25T12:41:51.832Z,39.88
2022-07-25T12:42:51.731Z,39.99
2022-07-25T12:43:51.857Z,40.49
2022-07-25T12:44:51.740Z,40.75
2022-07-25T12:45:51.792Z,41.03
2022-07-25T12:46:51.705Z,40.87
2022-07-25T12:47:51.721Z,40.65
2022-07-25T12:48:51.835Z,40.65
2022-07-25T12:49:51.800Z,41.29
2022-07-25T12:50:51.736Z,41.63
2022-07-25T12:51:57.686Z,41.62
2022-07-25T12:52:53.660Z,41.49
2022-07-25T12:53:51.744Z,41.25